sensor_id;sensor_type;location;lat;lon;timestamp;temperature;humidity
15574;DHT22;7888;46.748;8.102;2023-01-23T01:08:42;2.20;51.00
15574;DHT22;7888;46.748;8.102;2023-01-23T01:11:08;2.20;51.00
15574;DHT22;7888;46.748;8.102;2023-01-23T01:13:34;2.20;51.10
15574;DHT22;7888;46.748;8.102;2023-01-23T01:16:00;2.20;51.00
15574;DHT22;7888;46.748;8.102;2023-01-23T01:18:27;2.20;51.00
15574;DHT22;7888;46.748;8.102;2023-01-23T01:20:54;2.20;51.00
15574;DHT22;7888;46.748;8.102;2023-01-23T01:23:20;2.20;51.00
15574;DHT22;7888;46.748;8.102;2023-01-23T01:25:46;2.20;50.90
15574;DHT22;7888;46.748;8.102;2023-01-23T01:28:12;2.20;50.90
15574;DHT22;7888;46.748;8.102;2023-01-23T01:30:38;2.20;50.90
15574;DHT22;7888;46.748;8.102;2023-01-23T01:33:05;2.20;50.80
15574;DHT22;7888;46.748;8.102;2023-01-23T01:35:32;2.20;50.70
15574;DHT22;7888;46.748;8.102;2023-01-23T01:37:58;2.20;50.80
15574;DHT22;7888;46.748;8.102;2023-01-23T01:40:28;2.20;51.00
15574;DHT22;7888;46.748;8.102;2023-01-23T01:43:01;2.20;50.90
15574;DHT22;7888;46.748;8.102;2023-01-23T01:48:39;2.30;50.60
15574;DHT22;7888;46.748;8.102;2023-01-23T01:53:51;2.30;50.40
15574;DHT22;7888;46.748;8.102;2023-01-23T01:56:24;2.30;50.50
15574;DHT22;7888;46.748;8.102;2023-01-23T01:58:54;2.30;50.50
15574;DHT22;7888;46.748;8.102;2023-01-23T02:01:20;2.20;50.50
15574;DHT22;7888;46.748;8.102;2023-01-23T02:03:48;2.20;50.40
15574;DHT22;7888;46.748;8.102;2023-01-23T02:06:15;2.20;50.40
15574;DHT22;7888;46.748;8.102;2023-01-23T02:09:04;2.20;50.40
15574;DHT22;7888;46.748;8.102;2023-01-23T02:11:35;2.20;50.40
15574;DHT22;7888;46.748;8.102;2023-01-23T02:14:02;2.20;50.50
15574;DHT22;7888;46.748;8.102;2023-01-23T02:16:30;2.20;50.50
15574;DHT22;7888;46.748;8.102;2023-01-23T02:19:14;2.20;50.50
15574;DHT22;7888;46.748;8.102;2023-01-23T02:25:21;2.20;50.20
15574;DHT22;7888;46.748;8.102;2023-01-23T02:28:05;2.20;50.00
15574;DHT22;7888;46.748;8.102;2023-01-23T02:30:31;2.20;50.20
15574;DHT22;7888;46.748;8.102;2023-01-23T02:33:41;2.20;50.20
15574;DHT22;7888;46.748;8.102;2023-01-23T02:35:57;2.20;50.10
15574;DHT22;7888;46.748;8.102;2023-01-23T02:38:28;2.20;50.30
15574;DHT22;7888;46.748;8.102;2023-01-23T02:41:00;2.20;50.30
15574;DHT22;7888;46.748;8.102;2023-01-23T02:43:30;2.20;50.40
15574;DHT22;7888;46.748;8.102;2023-01-23T02:46:02;2.20;50.50
15574;DHT22;7888;46.748;8.102;2023-01-23T02:48:33;2.10;50.30
15574;DHT22;7888;46.748;8.102;2023-01-23T02:50:59;2.10;50.30
15574;DHT22;7888;46.748;8.102;2023-01-23T02:53:25;2.10;50.20
15574;DHT22;7888;46.748;8.102;2023-01-23T02:55:52;2.10;50.20
15574;DHT22;7888;46.748;8.102;2023-01-23T02:58:18;2.00;50.20
15574;DHT22;7888;46.748;8.102;2023-01-23T03:01:03;2.00;50.20
15574;DHT22;7888;46.748;8.102;2023-01-23T03:03:29;2.00;50.20
15574;DHT22;7888;46.748;8.102;2023-01-23T03:05:55;2.00;50.10
15574;DHT22;7888;46.748;8.102;2023-01-23T03:08:23;2.00;50.10
15574;DHT22;7888;46.748;8.102;2023-01-23T03:10:58;2.00;50.10
15574;DHT22;7888;46.748;8.102;2023-01-23T03:13:25;2.00;50.10
15574;DHT22;7888;46.748;8.102;2023-01-23T03:15:51;2.00;50.10
15574;DHT22;7888;46.748;8.102;2023-01-23T03:18:20;2.00;50.10
15574;DHT22;7888;46.748;8.102;2023-01-23T03:20:46;2.00;50.10
15574;DHT22;7888;46.748;8.102;2023-01-23T03:23:12;2.00;50.10
15574;DHT22;7888;46.748;8.102;2023-01-23T03:25:42;2.00;50.00
15574;DHT22;7888;46.748;8.102;2023-01-23T03:28:09;2.00;49.80
15574;DHT22;7888;46.748;8.102;2023-01-23T03:30:57;2.00;49.90
15574;DHT22;7888;46.748;8.102;2023-01-23T03:33:23;2.00;50.00
15574;DHT22;7888;46.748;8.102;2023-01-23T03:35:50;2.00;50.00
15574;DHT22;7888;46.748;8.102;2023-01-23T03:38:15;2.00;49.80
15574;DHT22;7888;46.748;8.102;2023-01-23T03:40:43;2.00;49.70
15574;DHT22;7888;46.748;8.102;2023-01-23T03:43:31;1.90;49.70
15574;DHT22;7888;46.748;8.102;2023-01-23T03:45:58;1.90;49.70
15574;DHT22;7888;46.748;8.102;2023-01-23T03:48:24;1.80;49.60
15574;DHT22;7888;46.748;8.102;2023-01-23T03:50:50;1.80;49.70
15574;DHT22;7888;46.748;8.102;2023-01-23T03:53:16;1.80;49.70
15574;DHT22;7888;46.748;8.102;2023-01-23T03:55:46;1.80;49.70
15574;DHT22;7888;46.748;8.102;2023-01-23T03:58:12;1.80;49.70
15574;DHT22;7888;46.748;8.102;2023-01-23T04:00:38;1.80;49.70
15574;DHT22;7888;46.748;8.102;2023-01-23T04:03:04;1.80;49.50
15574;DHT22;7888;46.748;8.102;2023-01-23T04:05:30;1.70;49.40
15574;DHT22;7888;46.748;8.102;2023-01-23T04:07:56;1.70;49.50
15574;DHT22;7888;46.748;8.102;2023-01-23T04:10:21;1.70;49.60
15574;DHT22;7888;46.748;8.102;2023-01-23T04:12:47;1.70;49.60
15574;DHT22;7888;46.748;8.102;2023-01-23T04:15:13;1.70;49.60
15574;DHT22;7888;46.748;8.102;2023-01-23T04:17:39;1.70;49.40
15574;DHT22;7888;46.748;8.102;2023-01-23T04:20:05;1.70;49.40
15574;DHT22;7888;46.748;8.102;2023-01-23T04:22:31;1.70;49.40
15574;DHT22;7888;46.748;8.102;2023-01-23T04:24:57;1.70;49.50
15574;DHT22;7888;46.748;8.102;2023-01-23T04:27:23;1.60;49.40
15574;DHT22;7888;46.748;8.102;2023-01-23T04:29:48;1.60;49.40
15574;DHT22;7888;46.748;8.102;2023-01-23T04:32:14;1.70;49.50
15574;DHT22;7888;46.748;8.102;2023-01-23T04:34:40;1.60;49.40
15574;DHT22;7888;46.748;8.102;2023-01-23T04:37:06;1.70;49.40
15574;DHT22;7888;46.748;8.102;2023-01-23T04:39:31;1.60;49.40
15574;DHT22;7888;46.748;8.102;2023-01-23T04:41:57;1.60;49.40
15574;DHT22;7888;46.748;8.102;2023-01-23T04:44:23;1.60;49.40
15574;DHT22;7888;46.748;8.102;2023-01-23T04:46:52;1.60;49.20
15574;DHT22;7888;46.748;8.102;2023-01-23T04:49:19;1.60;49.90
15574;DHT22;7888;46.748;8.102;2023-01-23T04:51:47;1.60;49.20
15574;DHT22;7888;46.748;8.102;2023-01-23T04:54:14;1.60;48.90
15574;DHT22;7888;46.748;8.102;2023-01-23T04:56:42;1.60;49.10
15574;DHT22;7888;46.748;8.102;2023-01-23T04:59:08;1.60;49.00
15574;DHT22;7888;46.748;8.102;2023-01-23T05:01:35;1.60;49.10
15574;DHT22;7888;46.748;8.102;2023-01-23T05:04:01;1.60;49.10
15574;DHT22;7888;46.748;8.102;2023-01-23T05:06:27;1.60;49.10
15574;DHT22;7888;46.748;8.102;2023-01-23T05:08:53;1.60;49.10
15574;DHT22;7888;46.748;8.102;2023-01-23T05:11:19;1.60;49.10
15574;DHT22;7888;46.748;8.102;2023-01-23T05:13:44;1.60;49.00
15574;DHT22;7888;46.748;8.102;2023-01-23T05:16:10;1.60;49.00
15574;DHT22;7888;46.748;8.102;2023-01-23T05:18:36;1.60;49.00
15574;DHT22;7888;46.748;8.102;2023-01-23T05:21:02;1.60;49.00
15574;DHT22;7888;46.748;8.102;2023-01-23T05:23:28;1.60;49.00
15574;DHT22;7888;46.748;8.102;2023-01-23T05:25:54;1.60;49.00
15574;DHT22;7888;46.748;8.102;2023-01-23T05:28:20;1.60;49.10
15574;DHT22;7888;46.748;8.102;2023-01-23T05:30:46;1.60;49.00
15574;DHT22;7888;46.748;8.102;2023-01-23T05:33:12;1.60;49.00
15574;DHT22;7888;46.748;8.102;2023-01-23T05:35:38;1.60;48.90
15574;DHT22;7888;46.748;8.102;2023-01-23T05:38:05;1.60;48.90
15574;DHT22;7888;46.748;8.102;2023-01-23T05:40:31;1.60;48.90
15574;DHT22;7888;46.748;8.102;2023-01-23T05:42:57;1.60;48.90
15574;DHT22;7888;46.748;8.102;2023-01-23T05:45:23;1.50;48.90
15574;DHT22;7888;46.748;8.102;2023-01-23T05:47:49;1.50;48.90
15574;DHT22;7888;46.748;8.102;2023-01-23T05:50:19;1.60;48.90
15574;DHT22;7888;46.748;8.102;2023-01-23T05:52:46;1.60;48.80
15574;DHT22;7888;46.748;8.102;2023-01-23T05:55:12;1.60;48.90
15574;DHT22;7888;46.748;8.102;2023-01-23T05:57:38;1.60;48.90
15574;DHT22;7888;46.748;8.102;2023-01-23T06:00:05;1.50;48.70
15574;DHT22;7888;46.748;8.102;2023-01-23T06:02:33;1.50;49.40
15574;DHT22;7888;46.748;8.102;2023-01-23T06:04:59;1.50;48.70
15574;DHT22;7888;46.748;8.102;2023-01-23T06:07:25;1.40;48.70
15574;DHT22;7888;46.748;8.102;2023-01-23T06:09:51;1.30;48.70
15574;DHT22;7888;46.748;8.102;2023-01-23T06:12:17;1.30;48.80
15574;DHT22;7888;46.748;8.102;2023-01-23T06:14:42;1.30;48.80
15574;DHT22;7888;46.748;8.102;2023-01-23T06:17:10;1.30;49.20
15574;DHT22;7888;46.748;8.102;2023-01-23T06:19:36;1.30;49.80
15574;DHT22;7888;46.748;8.102;2023-01-23T06:22:02;1.30;49.50
15574;DHT22;7888;46.748;8.102;2023-01-23T06:24:28;1.30;49.40
15574;DHT22;7888;46.748;8.102;2023-01-23T06:26:55;1.30;49.40
15574;DHT22;7888;46.748;8.102;2023-01-23T06:29:20;1.30;49.30
15574;DHT22;7888;46.748;8.102;2023-01-23T06:31:46;1.30;49.30
15574;DHT22;7888;46.748;8.102;2023-01-23T06:34:14;1.30;49.30
15574;DHT22;7888;46.748;8.102;2023-01-23T06:36:40;1.30;49.30
15574;DHT22;7888;46.748;8.102;2023-01-23T06:39:07;1.30;49.30
15574;DHT22;7888;46.748;8.102;2023-01-23T06:41:37;1.30;49.30
15574;DHT22;7888;46.748;8.102;2023-01-23T06:44:03;1.30;49.30
15574;DHT22;7888;46.748;8.102;2023-01-23T06:46:29;1.30;49.30
15574;DHT22;7888;46.748;8.102;2023-01-23T06:48:55;1.20;49.50
15574;DHT22;7888;46.748;8.102;2023-01-23T06:51:21;1.30;49.50
15574;DHT22;7888;46.748;8.102;2023-01-23T06:53:47;1.30;49.40
15574;DHT22;7888;46.748;8.102;2023-01-23T06:56:12;1.30;49.40
15574;DHT22;7888;46.748;8.102;2023-01-23T06:58:38;1.30;49.30
15574;DHT22;7888;46.748;8.102;2023-01-23T07:01:12;1.30;49.30
15574;DHT22;7888;46.748;8.102;2023-01-23T07:03:42;1.30;49.90
15574;DHT22;7888;46.748;8.102;2023-01-23T07:06:10;1.30;49.90
15574;DHT22;7888;46.748;8.102;2023-01-23T07:08:37;1.30;49.50
15574;DHT22;7888;46.748;8.102;2023-01-23T07:11:04;1.30;49.50
15574;DHT22;7888;46.748;8.102;2023-01-23T07:13:30;1.30;49.30
15574;DHT22;7888;46.748;8.102;2023-01-23T07:15:57;1.30;49.30
15574;DHT22;7888;46.748;8.102;2023-01-23T07:18:23;1.30;49.40
15574;DHT22;7888;46.748;8.102;2023-01-23T07:20:49;1.20;49.30
15574;DHT22;7888;46.748;8.102;2023-01-23T07:23:15;1.20;49.10
15574;DHT22;7888;46.748;8.102;2023-01-23T07:25:41;1.20;49.20
15574;DHT22;7888;46.748;8.102;2023-01-23T07:28:08;1.20;49.30
15574;DHT22;7888;46.748;8.102;2023-01-23T07:30:34;1.10;49.30
15574;DHT22;7888;46.748;8.102;2023-01-23T07:33:00;1.10;49.30
15574;DHT22;7888;46.748;8.102;2023-01-23T07:35:26;1.10;49.30
15574;DHT22;7888;46.748;8.102;2023-01-23T07:37:52;1.10;49.40
15574;DHT22;7888;46.748;8.102;2023-01-23T07:40:18;1.10;49.50
15574;DHT22;7888;46.748;8.102;2023-01-23T07:42:44;1.00;49.50
15574;DHT22;7888;46.748;8.102;2023-01-23T07:45:11;1.00;49.80
15574;DHT22;7888;46.748;8.102;2023-01-23T07:47:38;1.10;50.20
15574;DHT22;7888;46.748;8.102;2023-01-23T07:50:10;1.00;50.20
15574;DHT22;7888;46.748;8.102;2023-01-23T07:52:37;1.10;50.30
15574;DHT22;7888;46.748;8.102;2023-01-23T07:55:04;1.20;50.50
15574;DHT22;7888;46.748;8.102;2023-01-23T07:57:30;1.20;50.40
15574;DHT22;7888;46.748;8.102;2023-01-23T07:59:58;1.20;50.40
15574;DHT22;7888;46.748;8.102;2023-01-23T08:02:24;1.30;50.70
15574;DHT22;7888;46.748;8.102;2023-01-23T08:04:50;1.30;50.70
15574;DHT22;7888;46.748;8.102;2023-01-23T08:07:15;1.30;50.80
15574;DHT22;7888;46.748;8.102;2023-01-23T08:09:41;1.40;51.50
15574;DHT22;7888;46.748;8.102;2023-01-23T08:12:07;1.40;51.10
15574;DHT22;7888;46.748;8.102;2023-01-23T08:14:33;1.50;51.20
15574;DHT22;7888;46.748;8.102;2023-01-23T08:16:59;1.50;50.70
15574;DHT22;7888;46.748;8.102;2023-01-23T08:19:25;1.50;50.50
15574;DHT22;7888;46.748;8.102;2023-01-23T08:21:52;1.50;50.70
15574;DHT22;7888;46.748;8.102;2023-01-23T08:24:18;1.50;50.60
15574;DHT22;7888;46.748;8.102;2023-01-23T08:26:44;1.50;50.60
15574;DHT22;7888;46.748;8.102;2023-01-23T08:29:10;1.50;50.90
15574;DHT22;7888;46.748;8.102;2023-01-23T08:31:37;1.60;51.20
15574;DHT22;7888;46.748;8.102;2023-01-23T08:34:04;1.60;51.40
15574;DHT22;7888;46.748;8.102;2023-01-23T08:36:30;1.60;51.30
15574;DHT22;7888;46.748;8.102;2023-01-23T08:38:56;1.70;51.20
15574;DHT22;7888;46.748;8.102;2023-01-23T08:41:22;1.70;51.20
15574;DHT22;7888;46.748;8.102;2023-01-23T08:43:49;1.70;51.30
15574;DHT22;7888;46.748;8.102;2023-01-23T08:46:15;1.80;51.80
15574;DHT22;7888;46.748;8.102;2023-01-23T08:48:41;1.80;51.80
15574;DHT22;7888;46.748;8.102;2023-01-23T08:51:11;1.80;51.90
15574;DHT22;7888;46.748;8.102;2023-01-23T08:53:38;1.90;52.10
15574;DHT22;7888;46.748;8.102;2023-01-23T08:56:13;1.90;52.10
15574;DHT22;7888;46.748;8.102;2023-01-23T08:58:40;2.00;52.40
15574;DHT22;7888;46.748;8.102;2023-01-23T09:01:15;2.00;52.20
15574;DHT22;7888;46.748;8.102;2023-01-23T09:03:42;2.10;52.40
15574;DHT22;7888;46.748;8.102;2023-01-23T09:06:13;2.10;52.10
15574;DHT22;7888;46.748;8.102;2023-01-23T09:08:41;2.20;52.30
15574;DHT22;7888;46.748;8.102;2023-01-23T09:11:09;2.20;52.30
15574;DHT22;7888;46.748;8.102;2023-01-23T09:13:36;2.30;52.30
15574;DHT22;7888;46.748;8.102;2023-01-23T09:16:02;2.30;52.20
15574;DHT22;7888;46.748;8.102;2023-01-23T09:18:29;2.30;52.10
15574;DHT22;7888;46.748;8.102;2023-01-23T09:20:57;2.30;52.10
15574;DHT22;7888;46.748;8.102;2023-01-23T09:23:23;2.30;52.10
15574;DHT22;7888;46.748;8.102;2023-01-23T09:25:49;2.40;52.10
15574;DHT22;7888;46.748;8.102;2023-01-23T09:28:14;2.40;52.20
15574;DHT22;7888;46.748;8.102;2023-01-23T09:30:40;2.40;52.10
15574;DHT22;7888;46.748;8.102;2023-01-23T09:33:06;2.40;52.30
15574;DHT22;7888;46.748;8.102;2023-01-23T09:35:33;2.30;52.10
15574;DHT22;7888;46.748;8.102;2023-01-23T09:37:59;2.30;52.10
15574;DHT22;7888;46.748;8.102;2023-01-23T09:40:33;2.30;52.20
15574;DHT22;7888;46.748;8.102;2023-01-23T09:43:12;2.30;52.30
15574;DHT22;7888;46.748;8.102;2023-01-23T09:45:40;2.30;52.30
15574;DHT22;7888;46.748;8.102;2023-01-23T09:48:14;2.40;52.20
15574;DHT22;7888;46.748;8.102;2023-01-23T09:50:58;2.40;52.30
15574;DHT22;7888;46.748;8.102;2023-01-23T09:53:35;2.40;52.40
15574;DHT22;7888;46.748;8.102;2023-01-23T10:01:43;2.50;52.40
15574;DHT22;7888;46.748;8.102;2023-01-23T10:04:11;2.50;52.10
15574;DHT22;7888;46.748;8.102;2023-01-23T10:15:53;2.70;52.20
15574;DHT22;7888;46.748;8.102;2023-01-23T10:18:32;2.80;52.00
15574;DHT22;7888;46.748;8.102;2023-01-23T10:26:51;2.70;52.00
15574;DHT22;7888;46.748;8.102;2023-01-23T10:29:33;2.60;51.80
15574;DHT22;7888;46.748;8.102;2023-01-23T10:32:07;2.60;52.10
15574;DHT22;7888;46.748;8.102;2023-01-23T10:35:04;2.60;52.00
15574;DHT22;7888;46.748;8.102;2023-01-23T10:37:38;2.70;52.10
15574;DHT22;7888;46.748;8.102;2023-01-23T10:40:14;2.70;52.00
15574;DHT22;7888;46.748;8.102;2023-01-23T10:42:42;2.70;52.20
15574;DHT22;7888;46.748;8.102;2023-01-23T10:45:18;2.70;52.10
15574;DHT22;7888;46.748;8.102;2023-01-23T10:47:47;2.70;52.00
15574;DHT22;7888;46.748;8.102;2023-01-23T10:50:14;2.70;52.00
15574;DHT22;7888;46.748;8.102;2023-01-23T10:52:43;2.70;52.00
15574;DHT22;7888;46.748;8.102;2023-01-23T10:57:46;2.70;52.00
15574;DHT22;7888;46.748;8.102;2023-01-23T11:00:39;2.70;52.00
15574;DHT22;7888;46.748;8.102;2023-01-23T11:05:53;2.60;52.20
15574;DHT22;7888;46.748;8.102;2023-01-23T11:08:27;2.60;52.20
15574;DHT22;7888;46.748;8.102;2023-01-23T11:13:39;2.50;52.30
15574;DHT22;7888;46.748;8.102;2023-01-23T11:16:05;2.50;52.10
15574;DHT22;7888;46.748;8.102;2023-01-23T11:18:38;2.50;52.20
15574;DHT22;7888;46.748;8.102;2023-01-23T11:21:27;2.50;52.30
15574;DHT22;7888;46.748;8.102;2023-01-23T11:24:20;2.50;52.40
15574;DHT22;7888;46.748;8.102;2023-01-23T11:26:46;2.60;52.30
15574;DHT22;7888;46.748;8.102;2023-01-23T11:29:24;2.60;52.30
15574;DHT22;7888;46.748;8.102;2023-01-23T11:31:59;2.60;52.30
15574;DHT22;7888;46.748;8.102;2023-01-23T11:34:35;2.70;52.20
15574;DHT22;7888;46.748;8.102;2023-01-23T11:37:13;2.70;52.20
15574;DHT22;7888;46.748;8.102;2023-01-23T11:40:27;2.80;52.30
15574;DHT22;7888;46.748;8.102;2023-01-23T11:42:41;2.80;52.20
15574;DHT22;7888;46.748;8.102;2023-01-23T11:54:50;3.10;52.00
15574;DHT22;7888;46.748;8.102;2023-01-23T12:00:24;3.20;51.90
15574;DHT22;7888;46.748;8.102;2023-01-23T12:11:14;3.30;51.40
15574;DHT22;7888;46.748;8.102;2023-01-23T12:31:17;3.60;51.00
15574;DHT22;7888;46.748;8.102;2023-01-23T12:46:13;3.80;50.90
15574;DHT22;7888;46.748;8.102;2023-01-23T12:48:50;3.80;51.00
15574;DHT22;7888;46.748;8.102;2023-01-23T12:51:33;3.80;50.80
15574;DHT22;7888;46.748;8.102;2023-01-23T12:54:05;3.90;50.60
15574;DHT22;7888;46.748;8.102;2023-01-23T12:56:40;3.90;51.20
15574;DHT22;7888;46.748;8.102;2023-01-23T12:59:24;3.90;50.50
15574;DHT22;7888;46.748;8.102;2023-01-23T13:02:18;3.90;51.10
15574;DHT22;7888;46.748;8.102;2023-01-23T13:05:22;3.80;50.40
15574;DHT22;7888;46.748;8.102;2023-01-23T13:08:09;3.80;50.50
15574;DHT22;7888;46.748;8.102;2023-01-23T13:11:09;3.80;50.30
15574;DHT22;7888;46.748;8.102;2023-01-23T13:14:00;3.80;50.40
15574;DHT22;7888;46.748;8.102;2023-01-23T13:16:29;3.80;50.50
15574;DHT22;7888;46.748;8.102;2023-01-23T13:19:00;3.80;50.50
15574;DHT22;7888;46.748;8.102;2023-01-23T13:24:53;3.80;50.30
15574;DHT22;7888;46.748;8.102;2023-01-23T13:32:50;3.90;50.40
15574;DHT22;7888;46.748;8.102;2023-01-23T13:44:01;4.00;50.00
15574;DHT22;7888;46.748;8.102;2023-01-23T13:50:18;4.00;49.70
15574;DHT22;7888;46.748;8.102;2023-01-23T13:52:57;4.00;49.70
15574;DHT22;7888;46.748;8.102;2023-01-23T13:55:45;4.00;49.90
15574;DHT22;7888;46.748;8.102;2023-01-23T13:58:31;4.00;49.90
15574;DHT22;7888;46.748;8.102;2023-01-23T14:01:15;4.00;50.00
15574;DHT22;7888;46.748;8.102;2023-01-23T14:04:21;4.00;49.70
15574;DHT22;7888;46.748;8.102;2023-01-23T14:07:27;4.00;49.90
15574;DHT22;7888;46.748;8.102;2023-01-23T14:10:32;4.00;49.90
15574;DHT22;7888;46.748;8.102;2023-01-23T14:13:11;4.00;49.90
15574;DHT22;7888;46.748;8.102;2023-01-23T14:15:43;4.00;49.90
15574;DHT22;7888;46.748;8.102;2023-01-23T14:18:33;4.10;50.10
15574;DHT22;7888;46.748;8.102;2023-01-23T14:21:21;4.10;50.00
15574;DHT22;7888;46.748;8.102;2023-01-23T14:23:56;4.10;50.00
15574;DHT22;7888;46.748;8.102;2023-01-23T14:26:30;4.10;50.00
15574;DHT22;7888;46.748;8.102;2023-01-23T14:29:17;4.10;49.90
15574;DHT22;7888;46.748;8.102;2023-01-23T14:31:45;4.10;50.00
15574;DHT22;7888;46.748;8.102;2023-01-23T14:34:18;4.10;50.00
15574;DHT22;7888;46.748;8.102;2023-01-23T14:37:04;4.20;50.00
15574;DHT22;7888;46.748;8.102;2023-01-23T14:39:34;4.20;49.80
15574;DHT22;7888;46.748;8.102;2023-01-23T14:42:01;4.20;49.70
15574;DHT22;7888;46.748;8.102;2023-01-23T14:44:46;4.20;49.60
15574;DHT22;7888;46.748;8.102;2023-01-23T14:47:31;4.20;49.40
15574;DHT22;7888;46.748;8.102;2023-01-23T14:49:59;4.20;49.30
15574;DHT22;7888;46.748;8.102;2023-01-23T14:52:28;4.20;49.50
15574;DHT22;7888;46.748;8.102;2023-01-23T14:54:56;4.10;49.50
15574;DHT22;7888;46.748;8.102;2023-01-23T14:57:24;4.10;49.50
15574;DHT22;7888;46.748;8.102;2023-01-23T14:59:57;4.10;49.50
15574;DHT22;7888;46.748;8.102;2023-01-23T15:05:18;4.00;49.50
15574;DHT22;7888;46.748;8.102;2023-01-23T15:07:55;4.00;49.40
15574;DHT22;7888;46.748;8.102;2023-01-23T15:10:45;3.90;49.40
15574;DHT22;7888;46.748;8.102;2023-01-23T15:15:54;3.90;49.50
15574;DHT22;7888;46.748;8.102;2023-01-23T15:18:27;3.90;49.60
15574;DHT22;7888;46.748;8.102;2023-01-23T15:21:00;3.90;49.50
15574;DHT22;7888;46.748;8.102;2023-01-23T15:23:31;3.80;49.60
15574;DHT22;7888;46.748;8.102;2023-01-23T15:28:52;3.80;49.60
15574;DHT22;7888;46.748;8.102;2023-01-23T15:31:28;3.70;49.50
15574;DHT22;7888;46.748;8.102;2023-01-23T15:39:29;3.60;49.50
15574;DHT22;7888;46.748;8.102;2023-01-23T15:44:38;3.50;49.50
15574;DHT22;7888;46.748;8.102;2023-01-23T15:47:05;3.50;49.60
15574;DHT22;7888;46.748;8.102;2023-01-23T15:49:33;3.40;49.60
15574;DHT22;7888;46.748;8.102;2023-01-23T15:52:20;3.40;49.70
15574;DHT22;7888;46.748;8.102;2023-01-23T15:54:53;3.30;49.70
15574;DHT22;7888;46.748;8.102;2023-01-23T15:57:22;3.30;49.70
15574;DHT22;7888;46.748;8.102;2023-01-23T15:59:47;3.30;49.70
15574;DHT22;7888;46.748;8.102;2023-01-23T16:02:21;3.30;49.80
15574;DHT22;7888;46.748;8.102;2023-01-23T16:04:48;3.30;49.80
15574;DHT22;7888;46.748;8.102;2023-01-23T16:07:21;3.20;49.90
15574;DHT22;7888;46.748;8.102;2023-01-23T16:09:50;3.20;49.80
15574;DHT22;7888;46.748;8.102;2023-01-23T16:12:18;3.20;49.80
15574;DHT22;7888;46.748;8.102;2023-01-23T16:14:45;3.20;49.90
15574;DHT22;7888;46.748;8.102;2023-01-23T16:17:11;3.20;50.00
15574;DHT22;7888;46.748;8.102;2023-01-23T16:19:37;3.20;50.00
15574;DHT22;7888;46.748;8.102;2023-01-23T16:22:03;3.10;50.00
15574;DHT22;7888;46.748;8.102;2023-01-23T16:24:36;3.10;50.00
15574;DHT22;7888;46.748;8.102;2023-01-23T16:27:03;3.10;50.00
15574;DHT22;7888;46.748;8.102;2023-01-23T16:29:31;3.00;50.10
15574;DHT22;7888;46.748;8.102;2023-01-23T16:32:00;3.00;50.10
15574;DHT22;7888;46.748;8.102;2023-01-23T16:34:27;2.90;50.10
15574;DHT22;7888;46.748;8.102;2023-01-23T16:36:56;2.90;50.20
15574;DHT22;7888;46.748;8.102;2023-01-23T16:39:26;2.90;50.30
15574;DHT22;7888;46.748;8.102;2023-01-23T16:41:57;2.80;50.30
15574;DHT22;7888;46.748;8.102;2023-01-23T16:44:23;2.80;50.40
15574;DHT22;7888;46.748;8.102;2023-01-23T16:46:51;2.80;50.40
15574;DHT22;7888;46.748;8.102;2023-01-23T16:49:18;2.80;50.50
15574;DHT22;7888;46.748;8.102;2023-01-23T16:51:57;2.80;50.50
15574;DHT22;7888;46.748;8.102;2023-01-23T16:54:25;2.80;50.50
15574;DHT22;7888;46.748;8.102;2023-01-23T16:56:52;2.80;50.60
15574;DHT22;7888;46.748;8.102;2023-01-23T16:59:33;2.70;50.60
15574;DHT22;7888;46.748;8.102;2023-01-23T17:02:06;2.70;50.60
15574;DHT22;7888;46.748;8.102;2023-01-23T17:04:41;2.70;50.60
15574;DHT22;7888;46.748;8.102;2023-01-23T17:07:14;2.80;50.70
15574;DHT22;7888;46.748;8.102;2023-01-23T17:09:41;2.80;50.80
15574;DHT22;7888;46.748;8.102;2023-01-23T17:12:17;2.80;50.80
15574;DHT22;7888;46.748;8.102;2023-01-23T17:14:47;2.80;50.70
15574;DHT22;7888;46.748;8.102;2023-01-23T17:17:26;2.80;50.70
15574;DHT22;7888;46.748;8.102;2023-01-23T17:19:56;2.80;50.70
15574;DHT22;7888;46.748;8.102;2023-01-23T17:22:26;2.80;50.70
15574;DHT22;7888;46.748;8.102;2023-01-23T17:24:55;2.80;50.70
15574;DHT22;7888;46.748;8.102;2023-01-23T17:27:21;2.80;50.80
15574;DHT22;7888;46.748;8.102;2023-01-23T17:29:46;2.80;50.80
15574;DHT22;7888;46.748;8.102;2023-01-23T17:35:06;2.80;50.70
15574;DHT22;7888;46.748;8.102;2023-01-23T17:37:34;2.80;50.80
15574;DHT22;7888;46.748;8.102;2023-01-23T17:40:00;2.80;50.80
15574;DHT22;7888;46.748;8.102;2023-01-23T17:42:26;2.80;50.80
15574;DHT22;7888;46.748;8.102;2023-01-23T17:44:52;2.90;50.80
15574;DHT22;7888;46.748;8.102;2023-01-23T17:47:18;2.90;50.90
15574;DHT22;7888;46.748;8.102;2023-01-23T17:49:48;2.90;50.80
15574;DHT22;7888;46.748;8.102;2023-01-23T17:52:16;2.90;50.80
15574;DHT22;7888;46.748;8.102;2023-01-23T17:54:42;2.90;50.70
15574;DHT22;7888;46.748;8.102;2023-01-23T17:57:07;2.90;50.70
15574;DHT22;7888;46.748;8.102;2023-01-23T17:59:33;2.90;50.60
15574;DHT22;7888;46.748;8.102;2023-01-23T18:01:59;2.90;50.70
15574;DHT22;7888;46.748;8.102;2023-01-23T18:04:25;2.90;50.70
15574;DHT22;7888;46.748;8.102;2023-01-23T18:06:50;2.90;50.80
15574;DHT22;7888;46.748;8.102;2023-01-23T18:09:17;2.90;51.00
15574;DHT22;7888;46.748;8.102;2023-01-23T18:11:45;2.90;50.80
15574;DHT22;7888;46.748;8.102;2023-01-23T18:14:49;2.90;50.70
15574;DHT22;7888;46.748;8.102;2023-01-23T18:20:02;2.90;50.70
15574;DHT22;7888;46.748;8.102;2023-01-23T18:22:29;2.90;50.70
15574;DHT22;7888;46.748;8.102;2023-01-23T18:24:55;2.90;50.80
15574;DHT22;7888;46.748;8.102;2023-01-23T18:27:24;3.00;50.80
15574;DHT22;7888;46.748;8.102;2023-01-23T18:30:16;3.00;50.80
15574;DHT22;7888;46.748;8.102;2023-01-23T18:44:50;3.00;50.80
15574;DHT22;7888;46.748;8.102;2023-01-23T18:47:22;3.00;50.80
15574;DHT22;7888;46.748;8.102;2023-01-23T18:49:49;3.00;50.70
15574;DHT22;7888;46.748;8.102;2023-01-23T18:52:26;3.00;50.70
15574;DHT22;7888;46.748;8.102;2023-01-23T18:55:20;3.00;50.70
15574;DHT22;7888;46.748;8.102;2023-01-23T19:01:16;3.00;50.70
15574;DHT22;7888;46.748;8.102;2023-01-23T19:03:48;3.00;50.60
15574;DHT22;7888;46.748;8.102;2023-01-23T19:06:24;3.00;50.60
15574;DHT22;7888;46.748;8.102;2023-01-23T19:08:52;3.00;50.70
15574;DHT22;7888;46.748;8.102;2023-01-23T19:11:39;3.00;50.70
15574;DHT22;7888;46.748;8.102;2023-01-23T19:17:08;3.00;50.60
15574;DHT22;7888;46.748;8.102;2023-01-23T19:20:07;3.00;50.70
15574;DHT22;7888;46.748;8.102;2023-01-23T19:23:20;3.00;50.60
15574;DHT22;7888;46.748;8.102;2023-01-23T19:25:50;3.00;50.60
15574;DHT22;7888;46.748;8.102;2023-01-23T19:28:17;3.00;50.70
15574;DHT22;7888;46.748;8.102;2023-01-23T19:30:43;3.00;50.60
15574;DHT22;7888;46.748;8.102;2023-01-23T19:33:14;3.00;50.60
15574;DHT22;7888;46.748;8.102;2023-01-23T19:35:42;2.90;50.60
15574;DHT22;7888;46.748;8.102;2023-01-23T19:38:09;3.00;50.70
15574;DHT22;7888;46.748;8.102;2023-01-23T19:40:35;3.00;50.80
15574;DHT22;7888;46.748;8.102;2023-01-23T19:43:01;3.00;50.80
15574;DHT22;7888;46.748;8.102;2023-01-23T19:45:28;3.00;50.80
15574;DHT22;7888;46.748;8.102;2023-01-23T19:47:54;3.00;50.70
15574;DHT22;7888;46.748;8.102;2023-01-23T19:50:20;3.00;50.70
15574;DHT22;7888;46.748;8.102;2023-01-23T19:52:48;3.00;50.70
15574;DHT22;7888;46.748;8.102;2023-01-23T19:55:30;3.10;50.70
15574;DHT22;7888;46.748;8.102;2023-01-23T19:57:59;3.10;50.70
15574;DHT22;7888;46.748;8.102;2023-01-23T20:00:27;3.10;50.60
15574;DHT22;7888;46.748;8.102;2023-01-23T20:02:57;3.10;50.70